Time;durP1;ratioP1;P1;durP2;ratioP2;P2;SDS_P1;SDS_P2;PMS_P1;PMS_P2;Temp;Humidity;BMP_temperature;BMP_pressure;BME280_temperature;BME280_humidity;BME280_pressure;Samples;Min_cycle;Max_cycle;Signal;HPM_P1;HPM_P2
2023/02/27 00:01:12;;;;;;;9.57;4.72;;;1.80;99.90;;;;;;5092917;28;20214;-84
2023/02/27 00:03:39;;;;;;;6.57;4.70;;;1.80;99.90;;;;;;5101446;28;20202;-82
2023/02/27 00:06:07;;;;;;;10.90;4.63;;;1.90;99.90;;;;;;5106808;28;20249;-82
2023/02/27 00:08:34;;;;;;;11.15;5.47;;;1.80;99.90;;;;;;5103300;28;20226;-83
2023/02/27 00:11:01;;;;;;;15.30;5.57;;;1.80;99.90;;;;;;5106516;28;20202;-84
2023/02/27 00:13:28;;;;;;;9.93;5.75;;;1.90;99.90;;;;;;5099347;28;20218;-83
2023/02/27 00:15:56;;;;;;;6.43;5.60;;;1.80;99.90;;;;;;5102880;28;20293;-84
2023/02/27 00:18:23;;;;;;;6.70;5.65;;;1.80;99.90;;;;;;5088159;28;20258;-82
2023/02/27 00:20:50;;;;;;;9.30;4.95;;;1.80;99.90;;;;;;5100075;28;20215;-84
2023/02/27 00:23:20;;;;;;;9.23;5.22;;;1.70;99.90;;;;;;5094464;28;20229;-83
2023/02/27 00:25:47;;;;;;;11.93;5.38;;;1.70;99.90;;;;;;5111677;28;20206;-83
2023/02/27 00:28:14;;;;;;;8.95;4.72;;;1.70;99.90;;;;;;5100680;28;20230;-83
2023/02/27 00:30:40;;;;;;;9.65;5.40;;;1.80;99.90;;;;;;5100886;28;20194;-84
2023/02/27 00:33:08;;;;;;;6.32;5.15;;;1.80;99.90;;;;;;5103798;28;20209;-83
2023/02/27 00:35:34;;;;;;;10.20;5.30;;;1.90;99.90;;;;;;5085879;28;20206;-84
2023/02/27 00:38:01;;;;;;;8.35;4.82;;;1.90;99.90;;;;;;5087295;28;20318;-82
2023/02/27 00:40:30;;;;;;;7.72;5.47;;;1.90;99.90;;;;;;5089604;28;20218;-83
2023/02/27 00:42:57;;;;;;;7.40;5.20;;;1.90;99.90;;;;;;5081494;28;20218;-83
2023/02/27 00:45:24;;;;;;;9.55;5.88;;;1.90;99.90;;;;;;5091586;28;20227;-83
2023/02/27 00:47:51;;;;;;;8.63;5.20;;;2.00;99.90;;;;;;5085250;28;20219;-83
2023/02/27 00:50:18;;;;;;;7.28;5.68;;;1.90;99.90;;;;;;5094453;28;20195;-84
2023/02/27 00:52:45;;;;;;;8.95;5.22;;;1.90;99.90;;;;;;5112572;28;20377;-84
2023/02/27 00:55:12;;;;;;;6.75;5.28;;;1.80;99.90;;;;;;5107157;28;20179;-83
2023/02/27 00:57:40;;;;;;;8.40;5.65;;;1.80;99.90;;;;;;5105993;28;20210;-84
2023/02/27 01:00:09;;;;;;;8.35;5.30;;;1.80;99.90;;;;;;5107985;28;20409;-83
2023/02/27 01:02:37;;;;;;;7.97;5.60;;;1.80;99.90;;;;;;5110052;28;20183;-84
2023/02/27 01:05:04;;;;;;;9.25;5.82;;;1.90;99.90;;;;;;5118482;28;20224;-83
2023/02/27 01:07:32;;;;;;;8.00;4.65;;;1.70;99.90;;;;;;5103665;28;20251;-83
2023/02/27 01:09:59;;;;;;;6.10;5.28;;;1.70;99.90;;;;;;5102057;28;20194;-83
2023/02/27 01:12:26;;;;;;;8.18;5.60;;;1.70;99.90;;;;;;5109536;28;20202;-83
2023/02/27 01:14:54;;;;;;;5.85;4.55;;;1.60;99.90;;;;;;5113997;28;20252;-83
2023/02/27 01:17:21;;;;;;;3.88;3.42;;;1.50;99.90;;;;;;5105630;28;20215;-83
2023/02/27 01:19:48;;;;;;;9.77;4.90;;;1.70;99.90;;;;;;5105600;28;20277;-83
2023/02/27 01:22:15;;;;;;;13.40;4.50;;;1.80;99.90;;;;;;5091707;28;20234;-83
2023/02/27 01:24:42;;;;;;;4.70;3.70;;;2.00;99.90;;;;;;5106912;28;20354;-82
2023/02/27 01:27:09;;;;;;;7.75;5.63;;;1.90;99.90;;;;;;5111890;28;20294;-82
2023/02/27 01:29:36;;;;;;;10.18;5.65;;;1.90;99.90;;;;;;5115436;28;20251;-83
2023/02/27 01:32:05;;;;;;;6.60;4.40;;;1.90;99.90;;;;;;5115797;28;20697;-81
2023/02/27 01:34:32;;;;;;;6.40;4.55;;;1.80;99.90;;;;;;5115761;28;20190;-83
2023/02/27 01:36:59;;;;;;;8.52;4.55;;;1.80;99.90;;;;;;5116163;28;20211;-83
2023/02/27 01:39:26;;;;;;;6.47;3.92;;;1.80;99.90;;;;;;5112752;28;20206;-83
2023/02/27 01:41:53;;;;;;;10.85;4.88;;;1.80;99.90;;;;;;5115860;28;20277;-82
2023/02/27 01:44:20;;;;;;;9.45;4.20;;;1.80;99.90;;;;;;5112217;28;20203;-83
2023/02/27 01:46:48;;;;;;;8.68;4.82;;;1.70;99.90;;;;;;5112125;28;20210;-83
2023/02/27 01:49:18;;;;;;;8.55;4.55;;;1.50;99.90;;;;;;5113900;28;20218;-83
2023/02/27 01:51:48;;;;;;;9.98;4.60;;;1.70;99.90;;;;;;5104226;28;20201;-82
2023/02/27 01:54:18;;;;;;;7.43;4.50;;;1.70;99.90;;;;;;5127286;28;20194;-83
2023/02/27 01:56:45;;;;;;;8.45;4.57;;;1.80;99.90;;;;;;5095304;28;20213;-83
2023/02/27 01:59:12;;;;;;;5.90;3.80;;;1.90;99.90;;;;;;5092788;28;20271;-82
2023/02/27 02:01:39;;;;;;;15.55;4.20;;;1.90;99.90;;;;;;5094816;28;20214;-82
2023/02/27 02:04:12;;;;;;;6.05;3.97;;;1.90;99.90;;;;;;5109625;28;20225;-82
2023/02/27 02:06:44;;;;;;;11.10;6.07;;;1.80;99.90;;;;;;5097334;28;20206;-83
2023/02/27 02:09:13;;;;;;;7.40;3.70;;;1.90;99.90;;;;;;5111582;28;20174;-83
2023/02/27 02:11:41;;;;;;;5.13;4.00;;;1.90;99.90;;;;;;5116408;28;20199;-82
2023/02/27 02:14:09;;;;;;;5.50;3.90;;;1.90;99.90;;;;;;5112836;28;20205;-83
2023/02/27 02:16:59;;;;;;;5.50;3.60;;;1.90;99.90;;;;;;5131531;28;20218;-82
2023/02/27 02:20:06;;;;;;;6.30;4.45;;;1.90;99.90;;;;;;5103333;28;20195;-83
2023/02/27 02:23:09;;;;;;;5.75;4.18;;;2.00;99.90;;;;;;5107473;28;20671;-83
2023/02/27 02:25:59;;;;;;;8.30;3.38;;;2.00;99.90;;;;;;5106925;28;20196;-83
2023/02/27 02:28:56;;;;;;;7.28;3.65;;;2.00;99.90;;;;;;5109018;28;20246;-83
2023/02/27 02:31:47;;;;;;;3.65;3.20;;;2.00;99.90;;;;;;5105420;28;20267;-83
2023/02/27 02:34:44;;;;;;;4.97;2.90;;;1.90;99.90;;;;;;5098010;28;20213;-82
2023/02/27 02:38:05;;;;;;;6.78;4.20;;;1.90;99.90;;;;;;5090269;28;20217;-82
2023/02/27 02:40:43;;;;;;;13.32;4.40;;;1.90;99.90;;;;;;5102029;28;20273;-84
2023/02/27 02:43:14;;;;;;;8.82;4.00;;;1.90;99.90;;;;;;5100809;28;20228;-84
2023/02/27 02:45:49;;;;;;;3.60;3.20;;;2.00;99.90;;;;;;5120137;28;20214;-82
2023/02/27 02:48:25;;;;;;;5.07;3.53;;;1.90;99.90;;;;;;5109412;28;20202;-82
2023/02/27 02:50:59;;;;;;;4.15;3.60;;;1.90;99.90;;;;;;5112777;28;20189;-83
2023/02/27 02:53:34;;;;;;;12.30;5.65;;;1.80;99.90;;;;;;5119919;28;20212;-83
2023/02/27 02:56:05;;;;;;;4.72;3.33;;;1.70;99.90;;;;;;5113663;28;20193;-83
2023/02/27 02:58:39;;;;;;;7.18;3.00;;;1.70;99.90;;;;;;5098514;28;20375;-82
2023/02/27 03:01:14;;;;;;;3.30;2.97;;;1.60;99.90;;;;;;5097489;28;20235;-83
2023/02/27 03:03:45;;;;;;;4.40;2.50;;;1.70;99.90;;;;;;5102637;28;20255;-82
2023/02/27 03:06:18;;;;;;;6.97;3.85;;;1.80;99.90;;;;;;5103558;28;20237;-82
2023/02/27 03:08:50;;;;;;;5.40;3.40;;;1.70;99.90;;;;;;5093900;28;20664;-83
2023/02/27 03:11:18;;;;;;;6.15;3.60;;;1.80;99.90;;;;;;5097302;28;20199;-82
2023/02/27 03:13:50;;;;;;;9.40;2.88;;;1.80;99.90;;;;;;5091737;28;20286;-84
2023/02/27 03:16:23;;;;;;;4.20;3.22;;;1.70;99.90;;;;;;5096861;28;20255;-83
2023/02/27 03:18:56;;;;;;;5.10;3.70;;;1.90;99.90;;;;;;5097766;28;20195;-82
2023/02/27 03:21:33;;;;;;;8.68;3.95;;;1.80;99.90;;;;;;5096214;28;20228;-83
2023/02/27 03:24:02;;;;;;;6.38;3.33;;;1.70;99.90;;;;;;5091380;28;20229;-84
2023/02/27 03:26:36;;;;;;;5.15;3.22;;;1.70;99.90;;;;;;5103813;28;20198;-83
2023/02/27 03:29:07;;;;;;;5.60;2.88;;;1.80;99.90;;;;;;5094344;28;20222;-83
2023/02/27 03:31:40;;;;;;;5.32;3.58;;;1.80;99.90;;;;;;5103260;28;20182;-82
2023/02/27 03:34:13;;;;;;;9.52;5.00;;;1.80;99.90;;;;;;5104986;28;20197;-83
2023/02/27 03:36:45;;;;;;;5.50;3.47;;;1.70;99.90;;;;;;5098470;28;20209;-83
2023/02/27 03:39:23;;;;;;;5.13;3.60;;;1.70;99.90;;;;;;5092008;28;20194;-82
2023/02/27 03:41:58;;;;;;;7.75;4.30;;;1.70;99.90;;;;;;5099393;28;20234;-82
2023/02/27 03:44:31;;;;;;;7.03;4.22;;;1.60;99.90;;;;;;5095521;28;20190;-83
2023/02/27 03:46:58;;;;;;;8.13;4.50;;;1.30;99.90;;;;;;5102886;28;20233;-83
2023/02/27 03:49:25;;;;;;;8.07;4.70;;;1.40;99.90;;;;;;5095180;28;20296;-84
2023/02/27 03:51:52;;;;;;;6.97;3.90;;;1.40;99.90;;;;;;5101867;28;20253;-83
2023/02/27 03:54:22;;;;;;;6.85;4.35;;;1.40;99.90;;;;;;5089444;28;20222;-83
2023/02/27 03:56:55;;;;;;;7.55;4.57;;;1.40;99.90;;;;;;5089034;28;20253;-83
2023/02/27 03:59:24;;;;;;;6.70;4.13;;;1.40;99.90;;;;;;5102321;28;20274;-82
2023/02/27 04:01:53;;;;;;;5.32;4.05;;;1.40;99.90;;;;;;5106012;28;20259;-83
2023/02/27 04:04:20;;;;;;;5.28;3.58;;;1.50;99.90;;;;;;5100064;28;20227;-83
2023/02/27 04:09:57;;;;;;;5.93;4.80;;;1.70;99.90;;;;;;5092059;28;20193;-83
2023/02/27 04:12:48;;;;;;;6.78;4.45;;;1.70;99.90;;;;;;5113306;28;20186;-83
2023/02/27 04:15:25;;;;;;;9.60;5.13;;;1.70;99.90;;;;;;5106235;28;20203;-83
2023/02/27 04:17:59;;;;;;;5.65;5.10;;;1.80;99.90;;;;;;5101193;28;20242;-83
2023/02/27 04:20:44;;;;;;;10.65;5.00;;;1.70;99.90;;;;;;5085793;28;20280;-83
2023/02/27 04:23:17;;;;;;;9.90;5.97;;;1.60;99.90;;;;;;5093311;28;20217;-83
2023/02/27 04:25:54;;;;;;;7.65;4.97;;;1.50;99.90;;;;;;5088352;28;20277;-83
2023/02/27 04:28:27;;;;;;;5.68;5.10;;;1.50;99.90;;;;;;5092409;28;20218;-83
2023/02/27 04:31:02;;;;;;;8.45;5.68;;;1.50;99.90;;;;;;5096251;28;20198;-83
2023/02/27 04:33:41;;;;;;;9.60;4.82;;;1.50;99.90;;;;;;5091081;28;20574;-83
2023/02/27 04:36:13;;;;;;;11.40;5.60;;;1.60;99.90;;;;;;5095249;28;20278;-83
2023/02/27 04:38:46;;;;;;;6.75;5.07;;;1.60;99.90;;;;;;5101315;28;20230;-83
2023/02/27 04:41:17;;;;;;;7.72;5.70;;;1.60;99.90;;;;;;5099870;28;20230;-84
2023/02/27 04:43:47;;;;;;;6.85;5.18;;;1.70;99.90;;;;;;5101163;28;20192;-83
2023/02/27 04:46:17;;;;;;;12.48;5.25;;;1.60;99.90;;;;;;5103062;28;20202;-83
2023/02/27 04:48:52;;;;;;;11.05;6.03;;;1.70;99.90;;;;;;5089422;28;20752;-83
2023/02/27 04:51:24;;;;;;;8.48;5.97;;;1.60;99.90;;;;;;5099387;28;20225;-83
2023/02/27 04:53:58;;;;;;;9.32;5.32;;;1.60;99.90;;;;;;5098660;28;20199;-82
2023/02/27 04:56:30;;;;;;;10.32;6.10;;;1.50;99.90;;;;;;5103042;28;20227;-83
2023/02/27 04:59:01;;;;;;;10.15;7.18;;;1.60;99.90;;;;;;5114827;28;20217;-83
2023/02/27 05:01:34;;;;;;;8.80;7.07;;;1.50;99.90;;;;;;5112790;28;20203;-82
2023/02/27 05:04:12;;;;;;;8.85;6.05;;;1.60;99.90;;;;;;5109679;28;20191;-82
2023/02/27 05:06:43;;;;;;;7.47;6.68;;;1.60;99.90;;;;;;5101642;28;20233;-82
2023/02/27 05:09:16;;;;;;;10.52;7.50;;;1.50;99.90;;;;;;5101927;28;20243;-82
2023/02/27 05:11:49;;;;;;;10.80;7.20;;;1.40;99.90;;;;;;5085558;28;20218;-83
2023/02/27 05:14:23;;;;;;;10.00;7.75;;;1.30;99.90;;;;;;5100686;28;20240;-82
2023/02/27 05:16:54;;;;;;;9.30;8.15;;;1.30;99.90;;;;;;5090132;28;20226;-81
2023/02/27 05:19:21;;;;;;;7.57;6.30;;;1.30;99.90;;;;;;5094351;28;20198;-82
2023/02/27 05:21:56;;;;;;;14.20;7.63;;;1.30;99.90;;;;;;5087556;28;20219;-82
2023/02/27 05:24:32;;;;;;;12.10;7.32;;;1.20;99.90;;;;;;5104579;28;20212;-82
2023/02/27 05:27:18;;;;;;;12.30;7.60;;;1.20;99.90;;;;;;5107324;28;20236;-82
2023/02/27 05:29:49;;;;;;;10.40;7.60;;;1.00;99.90;;;;;;5108015;28;20258;-83
2023/02/27 05:32:34;;;;;;;14.05;9.60;;;1.20;99.90;;;;;;5107236;28;20209;-83
2023/02/27 05:35:09;;;;;;;14.13;9.20;;;1.20;99.90;;;;;;5095481;28;20199;-83
2023/02/27 05:37:43;;;;;;;10.45;7.95;;;1.10;99.90;;;;;;5096621;28;20218;-84
2023/02/27 05:40:19;;;;;;;15.82;8.63;;;1.20;99.90;;;;;;5096226;28;20283;-84
2023/02/27 05:42:53;;;;;;;16.08;7.47;;;1.20;99.90;;;;;;5095190;28;20234;-82
2023/02/27 05:45:25;;;;;;;12.25;8.10;;;1.20;99.90;;;;;;5104634;28;20294;-83
2023/02/27 05:47:56;;;;;;;19.40;9.57;;;1.10;99.90;;;;;;5105323;28;20222;-82
2023/02/27 05:50:27;;;;;;;14.90;8.75;;;1.20;99.90;;;;;;5097519;28;20284;-83
2023/02/27 05:52:58;;;;;;;12.35;8.48;;;1.20;99.90;;;;;;5103880;28;20210;-83
2023/02/27 05:55:29;;;;;;;13.10;8.90;;;1.20;99.90;;;;;;5095662;28;20213;-83
2023/02/27 05:58:01;;;;;;;14.52;8.68;;;1.10;99.90;;;;;;5102002;28;20327;-83
2023/02/27 06:00:37;;;;;;;13.60;8.70;;;1.10;99.90;;;;;;5101293;28;20342;-83
2023/02/27 06:03:04;;;;;;;15.50;9.45;;;1.10;99.90;;;;;;5100569;28;20296;-83
2023/02/27 06:05:31;;;;;;;11.65;9.48;;;1.10;99.90;;;;;;5101824;28;20199;-83
2023/02/27 06:07:59;;;;;;;12.60;9.25;;;1.10;99.90;;;;;;5106832;28;20199;-82
2023/02/27 06:10:26;;;;;;;13.65;9.93;;;1.00;99.90;;;;;;5102254;28;20266;-83
2023/02/27 06:12:53;;;;;;;11.02;8.82;;;1.10;99.90;;;;;;5098285;28;20182;-83
2023/02/27 06:15:21;;;;;;;15.57;10.70;;;1.10;99.90;;;;;;5097877;28;20191;-83
2023/02/27 06:17:50;;;;;;;20.95;10.27;;;1.20;99.90;;;;;;5102117;28;20202;-83
2023/02/27 06:20:18;;;;;;;14.32;9.25;;;1.20;99.90;;;;;;5106076;28;20222;-85
2023/02/27 06:22:45;;;;;;;16.55;10.55;;;1.30;99.90;;;;;;5095456;28;20276;-82
2023/02/27 06:25:12;;;;;;;13.75;8.70;;;1.30;99.90;;;;;;5087431;28;20306;-81
2023/02/27 06:27:40;;;;;;;11.95;9.55;;;1.30;99.90;;;;;;5094895;28;20230;-82
2023/02/27 06:30:08;;;;;;;11.50;10.20;;;1.40;99.90;;;;;;5110691;28;20224;-82
2023/02/27 06:32:35;;;;;;;15.07;9.93;;;1.30;99.90;;;;;;5102823;28;20678;-83
2023/02/27 06:35:05;;;;;;;17.80;11.85;;;1.30;99.90;;;;;;5091889;28;20206;-83
2023/02/27 06:37:32;;;;;;;15.30;9.95;;;1.30;99.90;;;;;;5098295;28;20305;-82
2023/02/27 06:39:59;;;;;;;17.27;9.23;;;1.40;99.90;;;;;;5097909;28;20298;-83
2023/02/27 06:42:26;;;;;;;14.02;10.45;;;1.40;99.90;;;;;;5095859;28;20224;-83
2023/02/27 06:44:53;;;;;;;15.95;9.73;;;1.50;99.90;;;;;;5088746;28;20210;-82
2023/02/27 06:47:19;;;;;;;18.63;11.52;;;1.50;99.90;;;;;;5105162;28;20242;-83
2023/02/27 06:49:46;;;;;;;15.45;9.35;;;1.60;99.90;;;;;;5086149;28;20234;-83
2023/02/27 06:52:15;;;;;;;13.40;9.63;;;1.60;99.90;;;;;;5097086;28;20221;-82
2023/02/27 06:54:41;;;;;;;10.40;8.90;;;1.70;99.90;;;;;;5086173;28;20250;-83
2023/02/27 06:57:08;;;;;;;16.58;10.00;;;1.90;99.90;;;;;;5104617;28;20226;-83
2023/02/27 06:59:35;;;;;;;13.13;9.18;;;1.90;99.90;;;;;;5096252;28;20201;-81
2023/02/27 07:02:02;;;;;;;18.77;9.70;;;2.10;99.90;;;;;;5098811;28;20697;-82
2023/02/27 07:04:29;;;;;;;20.92;10.63;;;2.20;99.90;;;;;;5095575;28;20312;-82
2023/02/27 07:06:58;;;;;;;10.68;9.57;;;2.30;99.90;;;;;;5107634;28;20233;-81
2023/02/27 07:09:27;;;;;;;10.10;8.20;;;2.50;99.90;;;;;;5086086;28;20260;-82
2023/02/27 07:11:54;;;;;;;12.98;7.63;;;2.70;99.90;;;;;;5089707;28;20210;-83
2023/02/27 07:14:21;;;;;;;11.73;8.65;;;3.10;99.90;;;;;;5101002;28;20202;-83
2023/02/27 07:16:53;;;;;;;11.13;7.25;;;3.40;99.90;;;;;;5093947;28;20242;-84
2023/02/27 07:19:20;;;;;;;11.32;6.68;;;4.20;99.90;;;;;;5087096;28;20210;-83
2023/02/27 07:21:47;;;;;;;10.68;6.65;;;5.60;99.90;;;;;;5101866;28;20213;-83
2023/02/27 07:24:14;;;;;;;10.32;6.40;;;6.80;99.90;;;;;;5100383;28;20205;-82
2023/02/27 07:26:52;;;;;;;7.15;6.30;;;7.90;99.90;;;;;;5104235;28;20205;-82
2023/02/27 07:29:22;;;;;;;7.10;5.90;;;9.10;99.90;;;;;;5109369;28;20193;-85
2023/02/27 07:31:49;;;;;;;7.97;6.45;;;10.10;97.60;;;;;;5106983;28;20199;-81
2023/02/27 07:34:16;;;;;;;10.27;6.15;;;10.70;94.20;;;;;;5099703;28;20292;-81
2023/02/27 07:36:43;;;;;;;6.75;5.10;;;11.20;92.50;;;;;;5103073;28;20290;-82
2023/02/27 07:39:11;;;;;;;10.38;5.80;;;12.00;90.70;;;;;;5100613;28;20197;-82
2023/02/27 07:41:38;;;;;;;12.07;6.13;;;12.40;88.40;;;;;;5101245;28;20197;-81
2023/02/27 07:44:07;;;;;;;14.68;5.00;;;12.20;86.40;;;;;;5094381;28;20254;-82
2023/02/27 07:53:38;;;;;;;7.80;5.07;;;13.80;82.50;;;;;;5117839;28;20183;-86
2023/02/27 07:56:08;;;;;;;8.32;6.20;;;14.00;80.60;;;;;;5106685;28;20200;-84
2023/02/27 08:01:41;;;;;;;7.07;5.20;;;14.50;78.90;;;;;;5125058;28;20307;-82
2023/02/27 08:04:26;;;;;;;6.30;4.83;;;15.10;77.40;;;;;;5112295;28;20218;-84
2023/02/27 08:10:06;;;;;;;6.73;5.03;;;16.00;74.40;;;;;;5105805;28;20429;-83
2023/02/27 08:12:45;;;;;;;9.27;4.70;;;16.20;73.30;;;;;;5117607;28;20448;-86
2023/02/27 08:15:12;;;;;;;5.00;4.20;;;16.40;72.60;;;;;;5119317;28;20451;-80
2023/02/27 08:17:41;;;;;;;6.50;4.83;;;16.70;72.30;;;;;;5112439;22;20497;-76
2023/02/27 08:20:10;;;;;;;6.60;4.83;;;17.10;71.40;;;;;;5113788;28;20949;-78
2023/02/27 08:22:37;;;;;;;7.93;4.53;;;17.30;69.70;;;;;;5102135;28;21039;-75
2023/02/27 08:25:06;;;;;;;6.03;4.37;;;17.30;69.80;;;;;;5107833;28;20448;-77
2023/02/27 08:27:34;;;;;;;7.63;4.33;;;17.50;68.90;;;;;;5093005;28;20477;-76
2023/02/27 08:30:02;;;;;;;6.03;3.67;;;17.60;68.50;;;;;;5092670;28;20433;-75
2023/02/27 08:32:29;;;;;;;9.27;5.10;;;18.10;67.90;;;;;;5091626;28;20493;-75
2023/02/27 08:34:57;;;;;;;8.10;4.10;;;18.10;67.60;;;;;;5091067;28;20461;-78
2023/02/27 08:37:24;;;;;;;5.37;4.53;;;18.50;67.10;;;;;;5082241;28;20549;-77
2023/02/27 08:39:51;;;;;;;6.57;3.80;;;18.80;66.10;;;;;;5084531;28;20514;-76
2023/02/27 08:42:18;;;;;;;6.10;4.47;;;19.20;65.80;;;;;;5093477;28;20566;-77
2023/02/27 08:44:45;;;;;;;9.77;3.80;;;19.50;65.30;;;;;;5077562;28;20440;-77
2023/02/27 08:47:14;;;;;;;5.33;3.50;;;19.60;63.70;;;;;;5085319;28;20496;-77
2023/02/27 08:49:41;;;;;;;5.00;3.10;;;19.50;63.90;;;;;;5081480;28;21825;-77
2023/02/27 08:52:09;;;;;;;11.23;3.93;;;19.20;64.70;;;;;;5090767;28;20801;-77
2023/02/27 08:54:36;;;;;;;7.40;3.60;;;19.30;64.80;;;;;;5078931;28;20513;-76
2023/02/27 08:57:04;;;;;;;4.43;3.70;;;19.40;64.60;;;;;;5079365;28;20464;-77
2023/02/27 08:59:31;;;;;;;7.00;3.73;;;19.70;64.40;;;;;;5087092;28;20451;-77
2023/02/27 09:01:58;;;;;;;8.10;3.90;;;19.90;64.70;;;;;;5078211;28;20906;-78
2023/02/27 09:04:34;;;;;;;8.37;4.87;;;19.90;63.10;;;;;;5086419;28;20464;-77
2023/02/27 09:07:01;;;;;;;7.07;4.40;;;19.60;64.00;;;;;;5087628;28;20479;-78
2023/02/27 09:09:30;;;;;;;9.97;4.37;;;19.50;63.50;;;;;;5088272;28;20478;-76
2023/02/27 09:11:57;;;;;;;11.23;5.33;;;19.40;64.10;;;;;;5089118;28;20813;-77
2023/02/27 09:14:24;;;;;;;8.80;4.47;;;19.40;64.10;;;;;;5091512;28;20452;-78
2023/02/27 09:16:51;;;;;;;12.17;6.17;;;19.10;64.60;;;;;;5090841;28;20575;-77
2023/02/27 09:19:18;;;;;;;20.20;4.30;;;18.90;65.00;;;;;;5085460;28;20463;-78
2023/02/27 09:21:46;;;;;;;9.03;4.70;;;18.70;64.70;;;;;;5084323;28;20969;-78
2023/02/27 09:24:13;;;;;;;8.13;4.17;;;18.60;65.00;;;;;;5085726;28;20476;-76
2023/02/27 09:26:41;;;;;;;7.07;4.17;;;18.60;65.80;;;;;;5084796;28;20553;-76
2023/02/27 09:29:08;;;;;;;7.30;4.10;;;18.80;65.40;;;;;;5079656;28;20469;-76
2023/02/27 09:31:35;;;;;;;8.60;3.63;;;18.40;64.70;;;;;;5084435;28;20930;-77
2023/02/27 09:34:03;;;;;;;5.27;3.60;;;18.20;65.50;;;;;;5082929;28;20496;-77
2023/02/27 09:36:31;;;;;;;9.50;4.50;;;18.10;67.10;;;;;;5083755;28;20499;-76
2023/02/27 09:38:59;;;;;;;5.67;3.47;;;17.80;65.90;;;;;;5079139;28;20527;-76
2023/02/27 09:41:56;;;;;;;10.00;4.00;;;17.50;67.80;;;;;;5092320;28;20509;-77
2023/02/27 09:44:38;;;;;;;6.57;3.77;;;18.00;67.90;;;;;;5083491;28;20600;-76
2023/02/27 09:47:10;;;;;;;9.73;3.97;;;18.80;66.30;;;;;;5086619;28;20611;-76
2023/02/27 09:49:49;;;;;;;5.43;3.07;;;18.30;66.40;;;;;;5092253;28;20474;-76
2023/02/27 09:52:16;;;;;;;9.97;3.83;;;18.50;66.40;;;;;;5092440;28;20872;-77
2023/02/27 09:54:43;;;;;;;8.97;3.20;;;18.20;65.70;;;;;;5090385;28;20472;-77
2023/02/27 09:57:17;;;;;;;6.90;3.93;;;18.10;66.20;;;;;;5092647;28;20491;-76
2023/02/27 09:59:50;;;;;;;5.90;3.43;;;17.80;65.70;;;;;;5070049;28;20975;-79
2023/02/27 10:02:33;;;;;;;10.70;3.50;;;17.70;66.60;;;;;;5084262;28;20490;-77
2023/02/27 10:05:06;;;;;;;5.50;2.80;;;17.70;66.20;;;;;;5084334;28;20455;-77
2023/02/27 10:07:40;;;;;;;4.80;2.70;;;16.80;64.10;;;;;;5079047;28;20957;-76
2023/02/27 10:10:19;;;;;;;3.93;3.43;;;16.70;65.00;;;;;;5073663;28;20841;-78
2023/02/27 10:13:00;;;;;;;7.13;2.87;;;16.40;66.40;;;;;;5070264;28;20468;-77
2023/02/27 10:15:31;;;;;;;5.50;2.80;;;16.20;67.40;;;;;;5088710;28;20476;-77
2023/02/27 10:18:02;;;;;;;8.47;3.80;;;16.10;67.40;;;;;;5088063;28;20476;-78
2023/02/27 10:20:34;;;;;;;3.97;2.83;;;16.60;66.60;;;;;;5090557;28;20543;-78
2023/02/27 10:23:07;;;;;;;5.17;3.30;;;16.90;66.00;;;;;;5089194;28;20514;-77
2023/02/27 10:25:39;;;;;;;4.67;2.67;;;16.90;64.40;;;;;;5090559;28;20448;-77
2023/02/27 10:28:13;;;;;;;5.10;3.20;;;16.60;64.20;;;;;;5085401;28;20479;-78
2023/02/27 10:30:41;;;;;;;4.93;3.30;;;15.90;65.80;;;;;;5086989;28;20479;-77
2023/02/27 10:33:18;;;;;;;5.65;2.65;;;15.20;67.30;;;;;;5092718;28;20285;-77
2023/02/27 10:35:45;;;;;;;3.92;2.20;;;14.80;67.90;;;;;;5094747;28;20280;-77
2023/02/27 10:38:17;;;;;;;4.60;2.50;;;15.00;68.20;;;;;;5087469;28;20223;-76
2023/02/27 10:40:45;;;;;;;4.32;2.65;;;14.80;67.60;;;;;;5096285;28;20205;-77
2023/02/27 10:43:17;;;;;;;7.28;3.08;;;14.70;67.60;;;;;;5088711;28;20257;-78
2023/02/27 10:45:45;;;;;;;6.95;3.17;;;14.30;68.00;;;;;;5084634;28;20226;-77
2023/02/27 10:48:13;;;;;;;4.22;2.55;;;13.90;68.40;;;;;;5086779;28;20305;-78
2023/02/27 10:50:42;;;;;;;4.95;2.90;;;13.50;70.10;;;;;;5087848;28;20195;-77
2023/02/27 10:53:19;;;;;;;5.60;3.17;;;13.00;70.30;;;;;;5095804;28;20197;-77
2023/02/27 10:55:58;;;;;;;7.43;2.90;;;12.10;72.20;;;;;;5087871;28;20203;-77
2023/02/27 10:58:31;;;;;;;4.10;2.80;;;12.10;72.90;;;;;;5085671;28;20289;-77
2023/02/27 11:01:00;;;;;;;6.22;3.05;;;12.20;73.50;;;;;;5066869;28;20205;-78
2023/02/27 11:03:37;;;;;;;3.30;2.00;;;12.30;72.20;;;;;;5093334;28;20220;-76
2023/02/27 11:06:07;;;;;;;7.30;2.90;;;12.30;72.60;;;;;;5080731;28;20292;-78
2023/02/27 11:08:35;;;;;;;5.80;2.55;;;12.30;72.00;;;;;;5093310;28;20250;-77
2023/02/27 11:11:04;;;;;;;5.47;3.30;;;12.50;71.90;;;;;;5086935;28;20217;-78
2023/02/27 11:13:34;;;;;;;6.45;2.95;;;12.50;72.50;;;;;;5082729;28;20215;-77
2023/02/27 11:16:12;;;;;;;3.95;2.15;;;12.40;71.90;;;;;;5089404;28;20252;-77
2023/02/27 11:18:40;;;;;;;3.75;2.70;;;12.30;70.60;;;;;;5088669;28;20215;-76
2023/02/27 11:21:21;;;;;;;4.18;2.03;;;12.00;71.40;;;;;;5076505;28;20203;-77
2023/02/27 11:23:57;;;;;;;3.35;2.13;;;11.70;72.00;;;;;;5084006;28;20210;-76
2023/02/27 11:26:33;;;;;;;4.15;2.80;;;11.50;73.40;;;;;;5087005;28;20218;-78
2023/02/27 11:29:18;;;;;;;6.30;3.10;;;11.30;75.20;;;;;;5091418;28;20206;-77
2023/02/27 11:31:49;;;;;;;5.15;2.65;;;11.50;75.80;;;;;;5084276;28;20206;-78
2023/02/27 11:34:27;;;;;;;4.50;2.45;;;11.70;75.40;;;;;;5084680;28;20219;-77
2023/02/27 11:36:59;;;;;;;6.20;2.30;;;11.80;74.30;;;;;;5086654;28;20309;-77
2023/02/27 11:39:31;;;;;;;3.38;2.00;;;11.60;74.90;;;;;;5084170;28;20230;-78
2023/02/27 11:42:08;;;;;;;4.38;2.30;;;11.60;74.90;;;;;;5093626;28;20240;-77
2023/02/27 11:44:38;;;;;;;7.65;3.13;;;11.60;74.50;;;;;;5098798;28;20255;-78
2023/02/27 11:47:14;;;;;;;6.10;2.65;;;11.60;75.10;;;;;;5092386;28;20312;-78
2023/02/27 11:49:59;;;;;;;3.30;2.53;;;11.30;74.80;;;;;;5093748;28;20205;-78
2023/02/27 11:52:40;;;;;;;6.00;2.75;;;11.10;75.80;;;;;;5098831;28;20681;-78
2023/02/27 11:55:14;;;;;;;2.97;2.22;;;11.00;76.20;;;;;;5070270;28;20294;-77
2023/02/27 11:57:45;;;;;;;6.57;3.58;;;10.30;76.80;;;;;;5069096;28;20299;-77
2023/02/27 12:00:25;;;;;;;8.18;3.72;;;9.80;79.60;;;;;;5092242;28;20262;-77
2023/02/27 12:03:01;;;;;;;4.95;2.63;;;9.40;81.20;;;;;;5088318;28;20285;-76
2023/02/27 12:05:31;;;;;;;10.82;2.53;;;9.50;82.20;;;;;;5071042;28;20272;-77
2023/02/27 12:08:04;;;;;;;4.78;2.30;;;9.60;81.80;;;;;;5094576;28;20230;-78
2023/02/27 12:10:37;;;;;;;5.28;3.08;;;9.60;81.30;;;;;;5084312;28;20194;-77
2023/02/27 12:13:11;;;;;;;5.13;2.55;;;9.80;80.90;;;;;;5094711;28;20612;-77
2023/02/27 12:15:46;;;;;;;5.15;3.15;;;9.90;81.00;;;;;;5073947;28;20277;-76
2023/02/27 12:18:17;;;;;;;3.65;2.53;;;9.90;80.30;;;;;;5084801;28;20258;-77
2023/02/27 12:20:52;;;;;;;2.15;1.80;;;10.00;78.50;;;;;;5082901;28;20228;-76
2023/02/27 12:23:23;;;;;;;4.13;2.30;;;10.10;78.50;;;;;;5091469;28;20231;-77
2023/02/27 12:25:56;;;;;;;4.20;2.42;;;10.10;78.10;;;;;;5078157;28;20203;-77
2023/02/27 12:28:33;;;;;;;2.90;2.17;;;10.10;78.20;;;;;;5081096;28;20578;-79
2023/02/27 12:31:22;;;;;;;6.97;2.63;;;10.20;77.90;;;;;;5074804;28;20720;-80
2023/02/27 12:33:55;;;;;;;7.57;2.22;;;10.30;77.00;;;;;;5085104;28;20210;-77
2023/02/27 12:36:22;;;;;;;3.88;1.90;;;10.10;77.00;;;;;;5094891;28;20268;-76
2023/02/27 12:38:49;;;;;;;4.03;3.42;;;10.00;77.00;;;;;;5096243;28;20194;-79
2023/02/27 12:41:29;;;;;;;3.38;2.70;;;10.00;77.40;;;;;;5097011;28;20678;-77
2023/02/27 12:44:20;;;;;;;7.50;2.70;;;9.80;79.30;;;;;;5096206;28;20211;-78
2023/02/27 12:46:55;;;;;;;4.55;1.90;;;9.70;79.60;;;;;;5081915;28;20225;-77
2023/02/27 12:49:36;;;;;;;2.53;1.80;;;9.70;79.50;;;;;;5084744;28;20194;-78
2023/02/27 12:52:15;;;;;;;5.15;2.20;;;9.60;79.90;;;;;;5084911;28;20194;-79
2023/02/27 12:54:55;;;;;;;5.88;2.97;;;9.50;80.60;;;;;;5071495;28;20245;-79
2023/02/27 12:57:32;;;;;;;4.88;2.05;;;9.60;81.30;;;;;;5079367;28;20227;-76
2023/02/27 13:00:14;;;;;;;6.35;2.17;;;9.90;80.00;;;;;;5082741;28;20265;-78
2023/02/27 13:02:58;;;;;;;3.25;1.88;;;10.20;77.90;;;;;;5088736;28;20687;-78
2023/02/27 13:05:36;;;;;;;4.15;2.20;;;10.20;75.60;;;;;;5090595;28;20215;-79
2023/02/27 13:08:16;;;;;;;4.13;1.85;;;10.20;76.80;;;;;;5091688;28;20285;-77
2023/02/27 13:10:48;;;;;;;5.07;2.05;;;10.30;76.70;;;;;;5073628;28;20205;-77
2023/02/27 13:13:23;;;;;;;3.50;1.60;;;10.20;75.00;;;;;;5086556;28;20290;-80
2023/02/27 13:15:55;;;;;;;5.50;2.40;;;10.30;74.60;;;;;;5087598;28;20195;-77
2023/02/27 13:18:40;;;;;;;3.13;2.10;;;10.30;74.70;;;;;;5095923;28;20583;-78
2023/02/27 13:21:12;;;;;;;3.65;2.08;;;10.40;75.30;;;;;;5088005;28;20240;-80
2023/02/27 13:23:51;;;;;;;2.67;1.77;;;10.40;75.10;;;;;;5086572;28;20262;-79
2023/02/27 13:26:24;;;;;;;4.28;2.00;;;10.60;76.50;;;;;;5088330;28;20247;-79
2023/02/27 13:28:52;;;;;;;4.55;2.25;;;10.70;76.00;;;;;;5096127;28;20242;-77
2023/02/27 13:31:29;;;;;;;5.20;1.90;;;10.60;76.20;;;;;;5092734;28;20212;-79